Terminal Aerodrome Forecast
Issued by NWS Boston, MA

Home | Current Version | Previous Version | Text Only | Print | Product List | Glossary On
Versions: 1 2 3 4 5 6 7 8 9 10 11 12 13 14 15 16 17 18 19 20 21 22 23 24 25 26 27 28 29 30 31 32 33 34 35 36 37 38 39 40 41 42 43 44 45 46
000
FTUS41 KBOX 020346 AAA
TAFPVD
TAF AMD
KPVD 020346Z 0204/0224 24006KT P6SM SKC
     FM021100 24004KT P6SM SCT130
     FM021400 22006KT P6SM BKN060
     FM021700 21009KT P6SM SCT110
     FM022000 21013G22KT P6SM FEW200=

USA.gov is the U.S. government's official web portal to all federal, state and local government web resources and services.